Tiempo atmosférico en la estación meteorológica de Barbadillo, Salamanca (817 m.)



Fecha
DESCASC
Temp. máxima en grados centígrados (hora)
DESCASC
Temp. mínima en grados centígrados (hora)
DESCASC
Temp. media en grados centígrados
DESCASC
Racha de viento máxima en m/sg (hora)
DESCASC
Velocidad máxima media en intervalos de 10 minutos(hora)
DESCASC
Precipitaciones diarias en mm
DESCASC
Precipitaciones de 00:00 a 06:00 en mm
DESCASC
Precipitaciones de 06:00 a 12:00 en mm
DESCASC
Precipitaciones de 12:00 a 18:00 en mm
DESCASC
Precipitaciones de 18:00 a 24:00 en mm
DESCASC
24-09-2020 19.5 (16:30) 11.2 (23:59) 15.3 14.17 (15:50) 8.89 (17:30) 0 0 0 0 0
23-09-2020 21.5 (15:30) 14.8 (00:00) 18.2 12.78 (15:50) 7.22 (16:00) 4.8 0 0 4.6 0.2
22-09-2020 22.6 (17:20) 8.7 (00:00) 15.7 9.44 (16:00) 6.11 (18:10) 0 0 0 0 0
21-09-2020 21.4 (17:20) 8.5 (00:00) 14.9 8.89 (17:30) 5 (17:30) 0 0 0 0 0
20-09-2020 20.8 (18:10) 14 (00:00) 17.4 10 (14:50) 6.39 (14:50) 7.6 1.4 3.6 2.6 0
19-09-2020 19.3 (15:40) 13.8 (00:00) 16.5 14.17 (05:50) 8.06 (06:20) 4.8 3 0.2 0.8 0.8
18-09-2020 21.7 (15:40) 13.3 (00:00) 17.5 10 (15:30) 6.39 (17:00) 3.4 1.2 0.6 0 1.6
17-09-2020 26.8 (15:10) 15.5 (00:00) 21.1 14.17 (16:50) 7.22 (18:20) 3.8 0 0 0 3.8
16-09-2020 28.7 (16:50) 9.2 (08:10) 19 7.78 (23:40) 5 (12:30) 0 0 0 0 0
15-09-2020 26.5 (15:50) 13 (00:00) 19.8 10.28 (16:30) 5.83 (13:50) 0 0 0 0 0
14-09-2020 29.3 (16:20) 15.6 (00:00) 22.4 13.89 (17:50) 7.5 (14:20) 1.8 0 0 0 1.8
13-09-2020 33.7 (16:50) 11.3 (00:00) 22.5 7.78 (15:50) 4.17 (18:00) 0 0 0 0 0
12-09-2020 31.2 (16:30) 9.1 (08:10) 20.2 10.83 (13:20) 7.22 (13:40) 0 0 0 0 0
11-09-2020 29.9 (18:10) 7.8 (00:00) 18.8 7.78 (13:40) 3.89 (14:50) 0 0 0 0 0
10-09-2020 28.7 (17:20) 7.7 (00:00) 18.2 6.94 (14:20) 4.17 (14:40) 0 0 0 0 0
09-09-2020 28.5 (17:40) 6.2 (08:10) 17.3 6.67 (16:50) 3.06 (16:20) 0 0 0 0 0
08-09-2020 26.1 (18:10) 8.4 (00:00) 17.3 9.72 (00:30) 6.39 (00:20) 0 0 0 0 0
07-09-2020 23.7 (17:10) 11.1 (08:10) 17.4 14.44 (10:50) 7.78 (10:10) 0 0 0 0 0
06-09-2020 29.8 (17:40) 13.1 (00:00) 21.4 10 (23:10) 6.39 (23:40) 0 0 0 0 0
05-09-2020 31.9 (16:10) 12.1 (00:00) 22 9.44 (22:50) 6.11 (23:59) 0 0 0 0 0
04-09-2020 33.5 (17:40) 9.6 (00:00) 21.6 7.22 (14:40) 3.89 (14:40) 0 0 0 0 0
03-09-2020 30.7 (17:00) 7.4 (00:00) 19.1 7.22 (14:40) 3.33 (11:50) 0 0 0 0 0
02-09-2020 27.8 (17:00) 6 (00:00) 16.9 7.78 (12:00) 4.72 (12:00) 0 0 0 0 0
01-09-2020 27.7 (17:40) 10.4 (00:00) 19.1 6.39 (17:50) 3.33 (18:30) 0 0 0 0 0
31-08-2020 25.6 (18:00) 3.7 (00:00) 14.7 9.17 (13:50) 4.72 (13:50) 0 0 0 0 0
30-08-2020 20.4 (16:20) 6 (00:00) 13.2 8.89 (10:50) 5 (10:40) 0 0 0 0 0
29-08-2020 21.2 (18:20) 5.7 (00:00) 13.5 10 (16:20) 4.72 (17:50) 0 0 0 0 0
28-08-2020 26.1 (16:10) 15.3 (00:00) 20.7 11.11 (18:50) 6.67 (18:10) 0 0 0 0 0
27-08-2020 33.7 (17:20) 13.3 (00:00) 23.5 8.89 (19:20) 4.72 (19:20) 0 0 0 0 0
26-08-2020 34 (18:10) 11 (00:00) 22.5 8.33 (18:30) 4.44 (18:40) 0 0 0 0 0

Gráficas

Temp. máximas Temp. mínimas Temp. medias Precipitaciones Rachas de viento máximas Velocidades máximas media en intervalos de 10 minutos

Datos horarios

Fecha y hora oficial Temperatura (ºC) Velocidad del viento (km/h) Dirección del viento Racha (km/h) Dirección de racha Precipitación (mm) Presión (hPa) Tendencia (hPa) Humedad (%)
2020-09-24 23:00:00 12.3 15 Oeste 28 Oeste 0 -- -- 73
2020-09-24 22:00:00 13.3 17 Oeste 29 Oeste 0 -- -- 66
2020-09-24 21:00:00 14 15 Oeste 35 Oeste 0 -- -- 60
2020-09-24 20:00:00 16 17 Oeste 37 Oeste 0 -- -- 53
2020-09-24 19:00:00 18 24 Oeste 48 Oeste 0 -- -- 52
2020-09-24 18:00:00 18.7 30 Oeste 49 Oeste 0 -- -- 51
2020-09-24 17:00:00 19.2 26 Oeste 41 Oeste 0 -- -- 57
2020-09-24 16:00:00 18.6 20 Oeste 51 Oeste 0 -- -- 58
2020-09-24 15:00:00 18.3 25 Oeste 42 Sudoeste 0 -- -- 62
2020-09-24 14:00:00 17.1 20 Oeste 37 Oeste 0 -- -- 67
2020-09-24 13:00:00 16.7 21 Oeste 46 Sudoeste 0 -- -- 70
2020-09-24 12:00:00 14.9 19 Oeste 28 Sudoeste 0 -- -- 79
2020-09-24 11:00:00 14.2 17 Oeste 28 Oeste 0 -- -- 81
2020-09-24 10:00:00 13.6 14 Oeste 29 Oeste 0 -- -- 89
2020-09-24 09:00:00 13.5 8 Oeste 16 Oeste 0 -- -- 91
2020-09-24 08:00:00 13.7 10 Oeste 17 Oeste 0 -- -- 91
2020-09-24 07:00:00 14.1 7 Oeste 21 Oeste 0 -- -- 91
2020-09-24 06:00:00 14.2 15 Oeste 25 Oeste 0 -- -- 90
2020-09-24 05:00:00 14.3 9 Oeste 23 Oeste 0 -- -- 90
2020-09-24 04:00:00 14.5 11 Oeste 20 Oeste 0 -- -- 90
2020-09-24 03:00:00 14.9 12 Oeste 21 Oeste 0 -- -- 91
2020-09-24 02:00:00 15.1 7 Oeste 14 Sudoeste 0 -- -- 92
2020-09-24 01:00:00 14.7 7 Sudoeste 14 Sudoeste 0 -- -- 92
2020-09-24 00:00:00 15 8 Sudoeste 17 Sudoeste 0 -- -- 92
2020-09-23 23:00:00 15.1 9 Sudoeste 18 Sudoeste 0 -- -- 91
2020-09-23 22:00:00 16 12 Sudoeste 17 Sur 0 -- -- 90
2020-09-23 21:00:00 16.2 6 Sudoeste 19 Sudoeste 0.2 -- -- 90
2020-09-23 20:00:00 17.1 7 Sudoeste 19 Sudoeste 0 -- -- 86
2020-09-23 19:00:00 17.4 10 Sudoeste 20 Oeste 0 -- -- 85
2020-09-23 18:00:00 16.7 10 Oeste 22 Oeste 0.2 -- -- 88
2020-09-23 17:00:00 16.4 18 Oeste 32 Oeste 2.2 -- -- 91
2020-09-23 16:00:00 17.5 26 Oeste 46 Oeste 2 -- -- 82
2020-09-23 15:00:00 20.5 23 Oeste 39 Sudoeste 0 -- -- 66
2020-09-23 14:00:00 20.1 21 Sudoeste 33 Sudoeste 0.2 -- -- 69
2020-09-23 13:00:00 18.8 21 Sudoeste 35 Oeste 0 -- -- 71
2020-09-23 12:00:00 18.8 19 Oeste 32 Sudoeste 0 -- -- 71
2020-09-23 11:00:00 17.2 14 Sudoeste 23 Sur 0 -- -- 76
2020-09-23 10:00:00 16 9 Sudoeste 17 Sudoeste 0 -- -- 84
2020-09-23 09:00:00 14.9 3 Sur 7 Sudoeste 0 -- -- 91
2020-09-23 08:00:00 15 4 Sur 6 Sur 0 -- -- 92
2020-09-23 07:00:00 15 4 Oeste 9 Oeste 0 -- -- 92
2020-09-23 06:00:00 15.1 5 Sudoeste 10 Sudoeste 0 -- -- 91
2020-09-23 05:00:00 15.1 3 Sur 10 Sur 0 -- -- 87
2020-09-23 04:00:00 15.1 6 Sur 10 Sur 0 -- -- 86
2020-09-23 03:00:00 15.4 8 Sudoeste 12 Sudoeste 0 -- -- 84
2020-09-23 02:00:00 15.3 5 Sudoeste 13 Sudoeste 0 -- -- 83
2020-09-23 01:00:00 16.2 7 Sudoeste 13 Sudoeste 0 -- -- 79
2020-09-23 00:00:00 17 8 Sur 13 Sudoeste 0 -- -- 78
2020-09-22 23:00:00 17.1 6 Sudoeste 10 Sur 0 -- -- 78
2020-09-22 22:00:00 17.6 3 Sudoeste 19 Sudoeste 0 -- -- 71
2020-09-22 21:00:00 18.7 4 Oeste 16 Noroeste 0 -- -- 62
2020-09-22 20:00:00 20.1 9 Oeste 21 Oeste 0 -- -- 55
2020-09-22 19:00:00 21 17 Oeste 32 Oeste 0 -- -- 51
2020-09-22 18:00:00 22.2 17 Oeste 34 Sudoeste 0 -- -- 47
2020-09-22 17:00:00 22.1 15 Oeste 33 Sudoeste 0 -- -- 49
2020-09-22 16:00:00 21.7 19 Oeste 34 Oeste 0 -- -- 47
2020-09-22 15:00:00 21 12 Oeste 28 Sudoeste 0 -- -- 49
2020-09-22 14:00:00 19 14 Oeste 29 Oeste 0 -- -- 60
2020-09-22 13:00:00 18.5 13 Oeste 23 Oeste 0 -- -- 64
2020-09-22 12:00:00 16.9 10 Oeste 19 Oeste 0 -- -- 71
2020-09-22 11:00:00 15.2 6 Sudoeste 13 Sudoeste 0 -- -- 81
2020-09-22 10:00:00 12.6 5 Sudoeste 12 Sudoeste 0 -- -- 93
2020-09-22 09:00:00 9.3 3 Sur 6 Sur 0 -- -- 94
2020-09-22 08:00:00 8.9 0 Calma 5 Sur 0 -- -- 92
2020-09-22 07:00:00 9.4 2 Sur 4 Sudeste 0 -- -- 92
2020-09-22 06:00:00 10.1 0 Calma 5 Sur 0 -- -- 89
2020-09-22 05:00:00 10.7 0 Calma 8 Sur 0 -- -- 88
2020-09-22 04:00:00 11.6 5 Sudeste 8 Sudoeste 0 -- -- 85
2020-09-22 03:00:00 12.9 3 Sur 13 Oeste 0 -- -- 81
2020-09-22 02:00:00 14 6 Oeste 10 Sudoeste 0 -- -- 78
2020-09-22 01:00:00 14.4 5 Sudoeste 8 Sudoeste 0 -- -- 77
2020-09-22 00:00:00 14.9 3 Sur 5 Sudeste 0 -- -- 77
2020-09-21 23:00:00 14.6 4 Sudeste 6 Sur 0 -- -- 75
2020-09-21 22:00:00 14.9 4 Sur 6 Sur 0 -- -- 71
2020-09-21 21:00:00 16.9 3 Oeste 11 Noroeste 0 -- -- 60
2020-09-21 20:00:00 19 8 Oeste 21 Oeste 0 -- -- 47
2020-09-21 19:00:00 20.7 10 Oeste 25 Oeste 0 -- -- 42
2020-09-21 18:00:00 21.1 15 Oeste 32 Oeste 0 -- -- 42
2020-09-21 17:00:00 21.2 12 Oeste 24 Oeste 0 -- -- 43
2020-09-21 16:00:00 20.8 10 Oeste 25 Oeste 0 -- -- 44
2020-09-21 15:00:00 19.8 12 Oeste 22 Sudoeste 0 -- -- 50
2020-09-21 14:00:00 18.6 9 Oeste 28 Noroeste 0 -- -- 56
2020-09-21 13:00:00 17.5 9 Oeste 18 Sudoeste 0 -- -- 64
2020-09-21 12:00:00 15.9 8 Oeste 15 Sudoeste 0 -- -- 75
2020-09-21 11:00:00 14.2 7 Oeste 13 Oeste 0 -- -- 83
2020-09-21 10:00:00 12.2 6 Oeste 10 Oeste 0 -- -- 95
2020-09-21 09:00:00 8.8 2 Sur 5 Sur 0 -- -- 95
2020-09-21 08:00:00 8.9 2 Sur 5 Sur 0 -- -- 93
2020-09-21 07:00:00 9.6 0 Calma 5 Sur 0 -- -- 93
2020-09-21 06:00:00 10.1 4 Sur 9 Sur 0 -- -- 92
2020-09-21 05:00:00 10.5 7 Sur 11 Sur 0 -- -- 91
2020-09-21 04:00:00 11 6 Sur 12 Sudoeste 0 -- -- 89
2020-09-21 03:00:00 11.8 6 Sur 11 Oeste 0 -- -- 88
2020-09-21 02:00:00 12.4 8 Sudoeste 14 Oeste 0 -- -- 87
2020-09-21 01:00:00 12.8 8 Oeste 13 Oeste 0 -- -- 84
2020-09-21 00:00:00 14 7 Sudoeste 15 Oeste 0 -- -- 78
2020-09-20 23:00:00 14.9 9 Oeste 14 Oeste 0 -- -- 75
2020-09-20 22:00:00 15.4 6 Sudoeste 15 Oeste 0 -- -- 75
2020-09-20 21:00:00 17 8 Oeste 24 Oeste 0 -- -- 70
2020-09-20 20:00:00 18.8 14 Oeste 36 Oeste 0 -- -- 64
2020-09-20 19:00:00 20.2 19 Oeste 34 Oeste 0 -- -- 60
2020-09-20 18:00:00 20.4 18 Oeste 34 Oeste 0 -- -- 63
2020-09-20 17:00:00 20.1 19 Oeste 33 Noroeste 0 -- -- 69
2020-09-20 16:00:00 18.2 12 Oeste 36 Oeste 0.6 -- -- 87
2020-09-20 15:00:00 19.4 20 Sudoeste 36 Oeste 0 -- -- 78
2020-09-20 14:00:00 18.1 18 Oeste 30 Oeste 0.4 -- -- 85
2020-09-20 13:00:00 16.4 12 Oeste 28 Oeste 1.6 -- -- 92
2020-09-20 12:00:00 15.9 14 Oeste 27 Oeste 2.6 -- -- 90
2020-09-20 11:00:00 16 13 Sudoeste 28 Oeste 0 -- -- 88
2020-09-20 10:00:00 15.1 12 Oeste 22 Oeste 0.2 -- -- 94
2020-09-20 09:00:00 14.8 6 Sudoeste 11 Sudoeste 0.4 -- -- 94
2020-09-20 08:00:00 14.7 6 Sudoeste 12 Sur 0 -- -- 94
2020-09-20 07:00:00 14.9 6 Sudoeste 9 Sudoeste 0.4 -- -- 94
2020-09-20 06:00:00 14.7 8 Sur 16 Sur 1 -- -- 93
2020-09-20 05:00:00 14.7 5 Sur 10 Sudoeste 0.2 -- -- 93
2020-09-20 04:00:00 14.8 7 Sudoeste 15 Sur 0 -- -- 92
2020-09-20 03:00:00 14.9 11 Sur 18 Sur 0 -- -- 92
2020-09-20 02:00:00 14.7 10 Sur 14 Sur 0.2 -- -- 93
2020-09-20 01:00:00 14.7 9 Sudoeste 14 Sur 0 -- -- 92
2020-09-20 00:00:00 14.8 6 Sur 14 Sudoeste 0 -- -- 92
2020-09-19 23:00:00 14.9 4 Sur 10 Sur 0.2 -- -- 92
2020-09-19 22:00:00 14.9 5 Sudoeste 8 Sudoeste 0.2 -- -- 91
2020-09-19 21:00:00 14.8 5 Sudoeste 15 Sudoeste 0 -- -- 91
2020-09-19 20:00:00 14.9 9 Sudoeste 22 Sudoeste 0.2 -- -- 90
2020-09-19 19:00:00 15.8 16 Sudoeste 26 Sudoeste 0.2 -- -- 86
2020-09-19 18:00:00 16 10 Sudoeste 37 Sudoeste 0.8 -- -- 82
2020-09-19 17:00:00 18.9 24 Sudoeste 36 Sudoeste 0 -- -- 57
2020-09-19 16:00:00 18.6 23 Oeste 34 Sudoeste 0 -- -- 62
2020-09-19 15:00:00 18.8 20 Oeste 36 Oeste 0 -- -- 67
2020-09-19 14:00:00 17.9 25 Sudoeste 35 Oeste 0 -- -- 70
2020-09-19 13:00:00 17 20 Oeste 40 Oeste 0 -- -- 76
2020-09-19 12:00:00 16.1 20 Oeste 37 Sudoeste 0 -- -- 82
2020-09-19 11:00:00 15.3 22 Sudoeste 35 Sudoeste 0 -- -- 86
2020-09-19 10:00:00 14.4 18 Sudoeste 41 Sudoeste 0 -- -- 90
2020-09-19 09:00:00 13.9 23 Sudoeste 35 Sudoeste 0 -- -- 91
2020-09-19 08:00:00 13.9 23 Sudoeste 42 Sudoeste 0 -- -- 92
2020-09-19 07:00:00 14.3 28 Sudoeste 45 Sudoeste 0.2 -- -- 89
2020-09-19 06:00:00 14.6 27 Sudoeste 51 Sudoeste 0.6 -- -- 88
2020-09-19 05:00:00 14.2 17 Sur 37 Sur 2.4 -- -- 93
2020-09-19 04:00:00 14.8 24 Sur 36 Sudoeste 0 -- -- 85
2020-09-19 03:00:00 14.5 16 Sur 39 Sur 0 -- -- 84
2020-09-19 02:00:00 14.9 22 Sur 33 Sur 0 -- -- 86
2020-09-19 01:00:00 14.5 15 Sur 27 Sur 0 -- -- 86
2020-09-19 00:00:00 13.9 8 Sudeste 20 Sudeste 0.6 -- -- 87
2020-09-18 23:00:00 14.5 4 Sudeste 22 Sur 1 -- -- 84
2020-09-18 22:00:00 16.3 10 Sudeste 25 Sur 0 -- -- 66
2020-09-18 21:00:00 16.9 12 Sur 22 Sudeste 0 -- -- 63
2020-09-18 20:00:00 17.6 8 Este 23 Sudeste 0 -- -- 65
2020-09-18 19:00:00 18.3 14 Sudeste 30 Sudeste 0 -- -- 59
2020-09-18 18:00:00 19 17 Sudeste 32 Sur 0 -- -- 58
2020-09-18 17:00:00 19.5 23 Sur 34 Sur 0 -- -- 54
2020-09-18 16:00:00 21.4 18 Sur 36 Sur 0 -- -- 46
2020-09-18 15:00:00 21.5 18 Sur 34 Sur 0 -- -- 47
2020-09-18 14:00:00 20.2 19 Sudoeste 33 Sur 0 -- -- 56
2020-09-18 13:00:00 18.5 11 Sur 21 Sudeste 0 -- -- 61
2020-09-18 12:00:00 16.5 10 Sur 33 Sudoeste 0 -- -- 71
2020-09-18 11:00:00 16.6 9 Sur 20 Sudeste 0 -- -- 77
2020-09-18 10:00:00 15 9 Sur 19 Sur 0 -- -- 84
2020-09-18 09:00:00 13.6 13 Sur 19 Sur 0.2 -- -- 90
2020-09-18 08:00:00 13.8 9 Sudeste 14 Sudeste 0 -- -- 89
2020-09-18 07:00:00 14.7 6 Este 16 Sudeste 0.4 -- -- 90
2020-09-18 06:00:00 15.1 7 Sur 18 Sur 0.8 -- -- 90
2020-09-18 05:00:00 15.6 8 Sudeste 14 Sudeste 0 -- -- 89
2020-09-18 04:00:00 15.6 3 Sur 12 Sudoeste 0 -- -- 90
2020-09-18 03:00:00 14.9 3 Nordeste 6 Nordeste 0 -- -- 93
2020-09-18 02:00:00 15 0 Calma 9 Sudoeste 0.4 -- -- 91
2020-09-18 01:00:00 14.7 5 Sur 14 Sudoeste 0 -- -- 90
2020-09-18 00:00:00 15.5 6 Sudoeste 21 Sur 0 -- -- 86
2020-09-17 23:00:00 16.2 16 Sudeste 26 Sudeste 1.6 -- -- 85
2020-09-17 22:00:00 16 0 Calma 20 Sudoeste 0 -- -- 82
2020-09-17 21:00:00 17 7 Sudoeste 31 Sudoeste 1.4 -- -- 78
2020-09-17 20:00:00 18.6 6 Oeste 9 Oeste 0 -- -- 83
2020-09-17 19:00:00 18.6 2 Este 34 Sudeste 0.8 -- -- 73
2020-09-17 18:00:00 25.7 17 Sudeste 35 Sur 0 -- -- 45
2020-09-17 17:00:00 25.7 23 Sur 51 Sur 0 -- -- 45
2020-09-17 16:00:00 26 16 Sur 35 Sur 0 -- -- 42
2020-09-17 15:00:00 26.3 17 Sudeste 37 Sudeste 0 -- -- 39
2020-09-17 14:00:00 25.8 18 Sur 35 Sudeste 0 -- -- 41
2020-09-17 13:00:00 24.7 17 Sur 26 Sur 0 -- -- 44
2020-09-17 12:00:00 24 8 Sudeste 18 Sur 0 -- -- 46
2020-09-17 11:00:00 23.2 8 Sudeste 19 Sudeste 0 -- -- 49
2020-09-17 10:00:00 21.5 10 Sudeste 21 Sudeste 0 -- -- 54
2020-09-17 09:00:00 19.4 8 Sudeste 15 Sudeste 0 -- -- 59
2020-09-17 08:00:00 19.4 7 Sudeste 17 Sudeste 0 -- -- 57
2020-09-17 07:00:00 19.7 4 Sudeste 20 Sudeste 0 -- -- 57
2020-09-17 06:00:00 20.3 15 Sudeste 26 Sudeste 0 -- -- 54
2020-09-17 05:00:00 19.8 13 Este 17 Este 0 -- -- 52
2020-09-17 04:00:00 20.5 12 Este 21 Sudeste 0 -- -- 49
2020-09-17 03:00:00 20.4 14 Este 23 Este 0 -- -- 49
2020-09-17 02:00:00 19.3 8 Este 12 Nordeste 0 -- -- 57
2020-09-17 01:00:00 20 4 Norte 12 Este 0 -- -- 54
2020-09-17 00:00:00 21.5 7 Este 28 Este 0 -- -- 47
2020-09-16 23:00:00 20.6 6 Sur 9 Sur 0 -- -- 48
2020-09-16 22:00:00 21.6 3 Sudeste 8 Sudeste 0 -- -- 45
2020-09-16 21:00:00 23.9 3 Sudoeste 11 Sudoeste 0 -- -- 41
2020-09-16 20:00:00 25.8 9 Sudoeste 18 Sudeste 0 -- -- 37
2020-09-16 19:00:00 27.1 9 Este 16 Nordeste 0 -- -- 34
2020-09-16 18:00:00 27.8 10 Este 26 Nordeste 0 -- -- 34
2020-09-16 17:00:00 28.2 9 Norte 23 Este 0 -- -- 34
2020-09-16 16:00:00 28.1 13 Este 27 Este 0 -- -- 30
2020-09-16 15:00:00 28 8 Sudeste 17 Nordeste 0 -- -- 31
2020-09-16 14:00:00 26 7 Sur 19 Este 0 -- -- 35
2020-09-16 13:00:00 25 12 Este 27 Nordeste 0 -- -- 44
2020-09-16 12:00:00 24.4 16 Este 23 Este 0 -- -- 45
2020-09-16 11:00:00 21.4 10 Este 15 Este 0 -- -- 53
2020-09-16 10:00:00 15.5 0 Calma 4 Oeste 0 -- -- 77
2020-09-16 09:00:00 10.5 2 Sur 8 Sur 0 -- -- 89
2020-09-16 08:00:00 9.3 3 Sur 6 Sudoeste 0 -- -- 87
2020-09-16 07:00:00 9.5 3 Sur 6 Sur 0 -- -- 86
2020-09-16 06:00:00 9.8 8 Sur 10 Sur 0 -- -- 87
2020-09-16 05:00:00 10.5 6 Sur 8 Sur 0 -- -- 85
2020-09-16 04:00:00 10.7 4 Sur 8 Sur 0 -- -- 85
2020-09-16 03:00:00 11.5 0 Calma 5 Sudoeste 0 -- -- 79
2020-09-16 02:00:00 12.8 6 Sur 8 Sur 0 -- -- 79
2020-09-16 01:00:00 14.2 0 Calma 7 Noroeste 0 -- -- 72
2020-09-16 00:00:00 16 8 Sur 10 Sur 0 -- -- 69
2020-09-15 23:00:00 17.7 9 Sudoeste 14 Sudoeste 0 -- -- 64
2020-09-15 22:00:00 19 0 Calma 11 Sudoeste 0 -- -- 57
2020-09-15 21:00:00 21.6 8 Sudoeste 23 Sudoeste 0 -- -- 49
2020-09-15 20:00:00 24.1 13 Sudoeste 26 Sudoeste 0 -- -- 42
2020-09-15 19:00:00 25.5 18 Sudoeste 28 Sudoeste 0 -- -- 38
2020-09-15 18:00:00 25.9 21 Sur 30 Sur 0 -- -- 37
2020-09-15 17:00:00 26.4 13 Sudoeste 37 Sur 0 -- -- 38
2020-09-15 16:00:00 26.4 17 Sudoeste 33 Sudoeste 0 -- -- 37
2020-09-15 15:00:00 25.6 18 Sudoeste 36 Sur 0 -- -- 39
2020-09-15 14:00:00 24.5 21 Sudoeste 35 Sudoeste 0 -- -- 42
2020-09-15 13:00:00 23.3 19 Sudoeste 32 Sur 0 -- -- 49
2020-09-15 12:00:00 22.3 16 Sur 24 Sur 0 -- -- 52
2020-09-15 11:00:00 20.3 10 Sur 18 Sur 0 -- -- 67
2020-09-15 10:00:00 15.6 2 Sudoeste 5 Sur 0 -- -- 94
2020-09-15 09:00:00 13.4 3 Sur 5 Sudoeste 0 -- -- 93
2020-09-15 08:00:00 13.2 4 Sur 5 Sur 0 -- -- 92
2020-09-15 07:00:00 13.9 2 Sudeste 4 Sudeste 0 -- -- 91
2020-09-15 06:00:00 14.2 4 Sudeste 6 Sur 0 -- -- 90
2020-09-15 05:00:00 14.7 3 Sur 7 Sudoeste 0 -- -- 91
2020-09-15 04:00:00 15.3 2 Sur 8 Sudoeste 0 -- -- 87
2020-09-15 03:00:00 15.9 5 Sur 9 Sur 0 -- -- 87
2020-09-15 02:00:00 16.6 4 Sur 15 Oeste 0 -- -- 85
2020-09-15 01:00:00 18 9 Oeste 30 Este 0 -- -- 80
2020-09-15 00:00:00 17.5 6 Sudeste 10 Sudeste 0.2 -- -- 82
2020-09-14 23:00:00 16.6 5 Sudeste 46 Sudoeste 1.2 -- -- 82
2020-09-14 22:00:00 -- 17 Sudoeste 50 Sudoeste 0.4 -- -- --
2020-09-14 21:00:00 23.8 11 Sudoeste 27 Sudoeste 0 -- -- 45
2020-09-14 20:00:00 26.1 15 Sudoeste 37 Sudoeste 0 -- -- 40
2020-09-14 19:00:00 27.9 19 Sudoeste 36 Sur 0 -- -- 36
2020-09-14 18:00:00 27.8 21 Sudoeste 50 Sur 0 -- -- 36
2020-09-14 17:00:00 28.9 18 Sudoeste 35 Sur 0 -- -- 33
2020-09-14 16:00:00 28.8 22 Sudoeste 38 Sudoeste 0 -- -- 34
2020-09-14 15:00:00 28.1 24 Sudoeste 38 Sudoeste 0 -- -- 37
2020-09-14 14:00:00 26.1 21 Sudoeste 32 Sudoeste 0 -- -- 43
2020-09-14 13:00:00 25.9 15 Sur 27 Sudeste 0 -- -- 41
2020-09-14 12:00:00 22 0 Calma 4 Este 0 -- -- 52
2020-09-14 11:00:00 20 3 Norte 6 Nordeste 0 -- -- 55
2020-09-14 10:00:00 18.8 3 Oeste 5 Sudoeste 0 -- -- 55
2020-09-14 09:00:00 18 0 Calma 5 Sur 0 -- -- 55
2020-09-14 08:00:00 18.2 0 Calma 6 Noroeste 0 -- -- 52
2020-09-14 07:00:00 19.2 3 Oeste 9 Sudoeste 0 -- -- 49
2020-09-14 06:00:00 20.2 9 Sudoeste 19 Sudoeste 0 -- -- 49
2020-09-14 05:00:00 17.7 9 Sudoeste 15 Sudoeste 0 -- -- 52
2020-09-14 04:00:00 17.6 10 Sudoeste 14 Sur 0 -- -- 50
2020-09-14 03:00:00 15.6 0 Calma 7 Oeste 0 -- -- 54
2020-09-14 02:00:00 16.6 0 Calma 5 Sudeste 0 -- -- 50
2020-09-14 01:00:00 17.8 3 Sudoeste 6 Sudeste 0 -- -- 50
2020-09-14 00:00:00 19.3 0 Calma 7 Sur 0 -- -- 46
2020-09-13 23:00:00 20.7 0 Calma 5 Sur 0 -- -- 44
2020-09-13 22:00:00 23.1 4 Sur 8 Sur 0 -- -- 38
2020-09-13 21:00:00 26.3 0 Calma 12 Sudoeste 0 -- -- 33
2020-09-13 20:00:00 29.2 9 Sur 19 Sur 0 -- -- 29
2020-09-13 19:00:00 30.8 13 Sudoeste 24 Sudoeste 0 -- -- 27
2020-09-13 18:00:00 30.8 15 Sudoeste 26 Sudoeste 0 -- -- 27
2020-09-13 17:00:00 33.7 10 Sur 23 Sudeste 0 -- -- 23
2020-09-13 16:00:00 33.6 10 Oeste 28 Sudeste 0 -- -- 22
2020-09-13 15:00:00 32.7 10 Sur 24 Sur 0 -- -- 22
2020-09-13 14:00:00 31 8 Noroeste 17 Oeste 0 -- -- 25
2020-09-13 13:00:00 29.8 7 Norte 14 Noroeste 0 -- -- 27
2020-09-13 12:00:00 27.4 7 Norte 12 Noroeste 0 -- -- 29
2020-09-13 11:00:00 23.4 4 Nordeste 8 Este 0 -- -- 32
2020-09-13 10:00:00 17.2 2 Norte 4 Nordeste 0 -- -- 45
2020-09-13 09:00:00 12.4 2 Sur 6 Sur 0 -- -- 50
2020-09-13 08:00:00 11.6 3 Sur 9 Sur 0 -- -- 51
2020-09-13 07:00:00 12.8 0 Calma 6 Sur 0 -- -- 50
2020-09-13 06:00:00 13.1 0 Calma 4 Sudeste 0 -- -- 47
2020-09-13 05:00:00 13.5 2 Sur 4 Sur 0 -- -- 47
2020-09-13 04:00:00 14.3 0 Calma 6 Sur 0 -- -- 43
2020-09-13 03:00:00 15.5 3 Oeste 14 Este 0 -- -- 41
2020-09-13 02:00:00 19.2 12 Este 18 Este 0 -- -- 32
2020-09-13 01:00:00 15.4 10 Este 17 Este 0 -- -- 42
2020-09-13 00:00:00 16.2 0 Calma 9 Sur 0 -- -- 42
2020-09-12 23:00:00 18.4 4 Sur 11 Sur 0 -- -- 40
2020-09-12 22:00:00 21.2 5 Sur 8 Sudeste 0 -- -- 34
2020-09-12 21:00:00 26.4 3 Nordeste 14 Nordeste 0 -- -- 28
2020-09-12 20:00:00 29.5 9 Nordeste 17 Nordeste 0 -- -- 24
2020-09-12 19:00:00 30.3 6 Nordeste 19 Nordeste 0 -- -- 23
2020-09-12 18:00:00 30.7 12 Norte 21 Noroeste 0 -- -- 22
2020-09-12 17:00:00 30.6 4 Sudeste 24 Este 0 -- -- 22
2020-09-12 16:00:00 31.1 17 Este 34 Este 0 -- -- 22
2020-09-12 15:00:00 30.6 16 Nordeste 31 Este 0 -- -- 23
2020-09-12 14:00:00 29.5 20 Nordeste 39 Este 0 -- -- 24
2020-09-12 13:00:00 28 22 Este 32 Este 0 -- -- 28
2020-09-12 12:00:00 24.9 11 Este 20 Este 0 -- -- 34
2020-09-12 11:00:00 21.2 12 Este 18 Nordeste 0 -- -- 41
2020-09-12 10:00:00 18 9 Este 14 Este 0 -- -- 48
2020-09-12 09:00:00 12 5 Este 7 Este 0 -- -- 62
2020-09-12 08:00:00 9.2 2 Sur 5 Sudeste 0 -- -- 65
2020-09-12 07:00:00 9.5 0 Calma 4 Noroeste 0 -- -- 65
2020-09-12 06:00:00 10.5 0 Calma 3 Sudeste 0 -- -- 60
2020-09-12 05:00:00 11 4 Sur 5 Sur 0 -- -- 58
2020-09-12 04:00:00 11.9 2 Sur 5 Sur 0 -- -- 54
2020-09-12 03:00:00 13 2 Sudoeste 7 Sudoeste 0 -- -- 51
2020-09-12 02:00:00 14 5 Sur 6 Sur 0 -- -- 50
2020-09-12 01:00:00 15 4 Sur 9 Sur 0 -- -- 47
2020-09-12 00:00:00 15.9 6 Sur 8 Sur 0 -- -- 44
2020-09-11 23:00:00 17.4 4 Sur 10 Sur 0 -- -- 40
2020-09-11 22:00:00 20.6 3 Sur 7 Nordeste 0 -- -- 36
2020-09-11 21:00:00 23.6 4 Nordeste 13 Norte 0 -- -- 32
2020-09-11 20:00:00 26.9 8 Norte 18 Nordeste 0 -- -- 27
2020-09-11 19:00:00 29.3 6 Norte 14 Noroeste 0 -- -- 24
2020-09-11 18:00:00 29.8 5 Noroeste 18 Noroeste 0 -- -- 23
2020-09-11 17:00:00 28.6 8 Noroeste 22 Norte 0 -- -- 25
2020-09-11 16:00:00 29.4 11 Oeste 21 Noroeste 0 -- -- 25
2020-09-11 15:00:00 28.9 8 Sudeste 23 Este 0 -- -- 25
2020-09-11 14:00:00 27.8 9 Norte 28 Este 0 -- -- 29
2020-09-11 13:00:00 26.4 9 Nordeste 17 Este 0 -- -- 33
2020-09-11 12:00:00 23.6 10 Este 16 Este 0 -- -- 40
2020-09-11 11:00:00 20.1 10 Este 18 Este 0 -- -- 47
2020-09-11 10:00:00 16.9 12 Este 15 Este 0 -- -- 56
2020-09-11 09:00:00 9.4 0 Calma 5 Sur 0 -- -- 65
2020-09-11 08:00:00 7.8 0 Calma 6 Sur 0 -- -- 66
2020-09-11 07:00:00 8.4 4 Sur 8 Sur 0 -- -- 65
2020-09-11 06:00:00 9.2 0 Calma 3 Sur 0 -- -- 60
2020-09-11 05:00:00 9.8 0 Calma 7 Sur 0 -- -- 61
2020-09-11 04:00:00 10.5 0 Calma 8 Sur 0 -- -- 58
2020-09-11 03:00:00 11.1 3 Sur 8 Sur 0 -- -- 56
2020-09-11 02:00:00 11.9 3 Sur 6 Sur 0 -- -- 53
2020-09-11 01:00:00 13.3 5 Sur 9 Sur 0 -- -- 50
2020-09-11 00:00:00 14.8 5 Sur 9 Sur 0 -- -- 46
2020-09-10 23:00:00 16.3 6 Sur 10 Sur 0 -- -- 42
2020-09-10 22:00:00 19.5 0 Calma 8 Noroeste 0 -- -- 38
2020-09-10 21:00:00 23.8 5 Nordeste 12 Noroeste 0 -- -- 32
2020-09-10 20:00:00 27.2 4 Norte 18 Noroeste 0 -- -- 27
2020-09-10 19:00:00 28.1 8 Nordeste 20 Nordeste 0 -- -- 25
2020-09-10 18:00:00 28.1 8 Norte 22 Noroeste 0 -- -- 26
2020-09-10 17:00:00 28.1 8 Norte 22 Este 0 -- -- 26
2020-09-10 16:00:00 28.6 9 Este 23 Nordeste 0 -- -- 28
2020-09-10 15:00:00 27.6 9 Nordeste 25 Este 0 -- -- 32
2020-09-10 14:00:00 26.5 9 Este 19 Este 0 -- -- 35
2020-09-10 13:00:00 25 10 Nordeste 21 Este 0 -- -- 37
2020-09-10 12:00:00 22.7 11 Este 21 Este 0 -- -- 44
2020-09-10 11:00:00 19.5 12 Este 15 Este 0 -- -- 52
2020-09-10 10:00:00 16.4 11 Este 15 Este 0 -- -- 60
2020-09-10 09:00:00 9.2 0 Calma 4 Sudoeste 0 -- -- 63
2020-09-10 08:00:00 7.7 4 Sur 7 Sur 0 -- -- 64
2020-09-10 07:00:00 8 2 Sur 6 Sur 0 -- -- 63
2020-09-10 06:00:00 8.5 4 Sur 5 Sur 0 -- -- 59
2020-09-10 05:00:00 9.1 4 Sur 8 Sur 0 -- -- 57
2020-09-10 04:00:00 9.5 0 Calma 6 Sur 0 -- -- 55
2020-09-10 03:00:00 10.5 0 Calma 9 Sudoeste 0 -- -- 52
2020-09-10 02:00:00 11.7 3 Sur 6 Sur 0 -- -- 49
2020-09-10 01:00:00 12.9 5 Sur 10 Sur 0 -- -- 46
2020-09-10 00:00:00 14 6 Sur 8 Sur 0 -- -- 43
2020-09-09 23:00:00 15.3 9 Sur 10 Sur 0 -- -- 40
2020-09-09 22:00:00 18.7 6 Sur 9 Sur 0 -- -- 34
2020-09-09 21:00:00 23.9 4 Nordeste 10 Norte 0 -- -- 27
2020-09-09 20:00:00 27 5 Norte 14 Nordeste 0 -- -- 24
2020-09-09 19:00:00 28.1 5 Nordeste 17 Nordeste 0 -- -- 22
2020-09-09 18:00:00 28.2 5 Oeste 18 Norte 0 -- -- 22
2020-09-09 17:00:00 27.6 9 Norte 24 Norte 0 -- -- 23
2020-09-09 16:00:00 27.9 9 Oeste 18 Norte 0 -- -- 22
2020-09-09 15:00:00 27.6 7 Este 20 Este 0 -- -- 23
2020-09-09 14:00:00 26.1 6 Este 14 Este 0 -- -- 27
2020-09-09 13:00:00 24.7 5 Noroeste 11 Norte 0 -- -- 31
2020-09-09 12:00:00 21.5 5 Norte 13 Noroeste 0 -- -- 37
2020-09-09 11:00:00 17.9 3 Norte 6 Norte 0 -- -- 45
2020-09-09 10:00:00 13.2 3 Oeste 5 Norte 0 -- -- 56
2020-09-09 09:00:00 8.1 0 Calma 4 Oeste 0 -- -- 71
2020-09-09 08:00:00 6.3 0 Calma 8 Sur 0 -- -- 69
2020-09-09 07:00:00 6.8 4 Sur 7 Sur 0 -- -- 65
2020-09-09 06:00:00 8.3 2 Este 15 Este 0 -- -- 59
2020-09-09 05:00:00 7.3 4 Sudeste 5 Sur 0 -- -- 59
2020-09-09 04:00:00 7.9 2 Sur 8 Sur 0 -- -- 54
2020-09-09 03:00:00 8.7 5 Sur 9 Sudeste 0 -- -- 51
2020-09-09 02:00:00 9.5 4 Sur 7 Sur 0 -- -- 48
2020-09-09 01:00:00 10.6 4 Sur 9 Sur 0 -- -- 43
2020-09-09 00:00:00 11.6 5 Sur 7 Sur 0 -- -- 39
2020-09-08 23:00:00 13.5 3 Sur 8 Sur 0 -- -- 37
2020-09-08 22:00:00 16.5 5 Sudoeste 6 Sudoeste 0 -- -- 33
2020-09-08 21:00:00 21.4 0 Calma 14 Norte 0 -- -- 28
2020-09-08 20:00:00 24.1 8 Norte 16 Norte 0 -- -- 22
2020-09-08 19:00:00 25.5 6 Norte 19 Nordeste 0 -- -- 22
2020-09-08 18:00:00 25.9 6 Este 23 Este 0 -- -- 23
2020-09-08 17:00:00 25.7 10 Este 26 Este 0 -- -- 25
2020-09-08 16:00:00 24.9 11 Este 27 Nordeste 0 -- -- 27
2020-09-08 15:00:00 23.9 13 Este 26 Este 0 -- -- 30
2020-09-08 14:00:00 21.8 12 Nordeste 24 Este 0 -- -- 34
2020-09-08 13:00:00 19.7 13 Nordeste 28 Este 0 -- -- 40
2020-09-08 12:00:00 17.3 15 Nordeste 25 Nordeste 0 -- -- 47
2020-09-08 11:00:00 14.4 12 Nordeste 26 Este 0 -- -- 58
2020-09-08 10:00:00 11.9 17 Este 26 Este 0 -- -- 67
2020-09-08 09:00:00 10 14 Nordeste 27 Nordeste 0 -- -- 76
2020-09-08 08:00:00 8.6 11 Nordeste 20 Este 0 -- -- 80
2020-09-08 07:00:00 8.7 7 Nordeste 14 Nordeste 0 -- -- 77
2020-09-08 06:00:00 9.3 4 Norte 17 Este 0 -- -- 74
2020-09-08 05:00:00 9.8 8 Nordeste 17 Nordeste 0 -- -- 70
2020-09-08 04:00:00 10.5 6 Nordeste 34 Este 0 -- -- 66
2020-09-08 03:00:00 12 21 Nordeste 32 Nordeste 0 -- -- 61
2020-09-08 02:00:00 12.9 13 Este 26 Nordeste 0 -- -- 57
2020-09-08 01:00:00 14.4 22 Este 35 Este 0 -- -- 53
2020-09-08 00:00:00 15.9 19 Nordeste 36 Este 0 -- -- 48
2020-09-07 23:00:00 17.3 18 Nordeste 34 Nordeste 0 -- -- 46
2020-09-07 22:00:00 18.5 16 Nordeste 31 Nordeste 0 -- -- 42
2020-09-07 21:00:00 20 14 Nordeste 30 Nordeste 0 -- -- 37
2020-09-07 20:00:00 22.3 19 Nordeste 30 Nordeste 0 -- -- 33
2020-09-07 19:00:00 23.2 19 Nordeste 32 Este 0 -- -- 31
2020-09-07 18:00:00 23.7 16 Nordeste 37 Nordeste 0 -- -- 30
2020-09-07 17:00:00 23.4 15 Nordeste 38 Este 0 -- -- 32
2020-09-07 16:00:00 23 20 Nordeste 39 Nordeste 0 -- -- 35
2020-09-07 15:00:00 21.9 20 Este 48 Nordeste 0 -- -- 38
2020-09-07 14:00:00 20.6 21 Nordeste 37 Nordeste 0 -- -- 41
2020-09-07 13:00:00 19 24 Este 41 Este 0 -- -- 47
2020-09-07 12:00:00 17.4 25 Nordeste 41 Este 0 -- -- 53
2020-09-07 11:00:00 15.5 27 Este 52 Nordeste 0 -- -- 61
2020-09-07 10:00:00 13.9 24 Este 34 Este 0 -- -- 67
2020-09-07 09:00:00 12 17 Este 27 Este 0 -- -- 74
2020-09-07 08:00:00 11.3 15 Nordeste 27 Nordeste 0 -- -- 75
2020-09-07 07:00:00 11.5 15 Nordeste 27 Este 0 -- -- 74
2020-09-07 06:00:00 11.8 13 Este 30 Nordeste 0 -- -- 73
2020-09-07 05:00:00 12.6 18 Nordeste 30 Nordeste 0 -- -- 71
2020-09-07 04:00:00 13.2 15 Nordeste 33 Nordeste 0 -- -- 65
2020-09-07 03:00:00 14 15 Nordeste 27 Este 0 -- -- 61
2020-09-07 02:00:00 15.1 16 Nordeste 28 Nordeste 0 -- -- 58
2020-09-07 01:00:00 16.4 10 Nordeste 27 Nordeste 0 -- -- 54
2020-09-07 00:00:00 18.1 16 Nordeste 36 Este 0 -- -- 49
2020-09-06 23:00:00 20.1 21 Este 34 Este 0 -- -- 47
2020-09-06 22:00:00 22.6 18 Nordeste 28 Nordeste 0 -- -- 44
2020-09-06 21:00:00 25.3 9 Norte 23 Norte 0 -- -- 40
2020-09-06 20:00:00 28 10 Norte 22 Norte 0 -- -- 35
2020-09-06 19:00:00 29.5 4 Norte 21 Nordeste 0 -- -- 32
2020-09-06 18:00:00 29.6 8 Norte 18 Noroeste 0 -- -- 32
2020-09-06 17:00:00 29.4 8 Norte 22 Noroeste 0 -- -- 33
2020-09-06 16:00:00 28.7 8 Norte 23 Norte 0 -- -- 35
2020-09-06 15:00:00 27.6 10 Nordeste 25 Nordeste 0 -- -- 38
2020-09-06 14:00:00 25.5 13 Nordeste 24 Este 0 -- -- 43
2020-09-06 13:00:00 23 10 Nordeste 27 Nordeste 0 -- -- 50
2020-09-06 12:00:00 20.8 12 Nordeste 22 Nordeste 0 -- -- 57
2020-09-06 11:00:00 18.4 16 Este 23 Nordeste 0 -- -- 65
2020-09-06 10:00:00 16.5 17 Este 27 Nordeste 0 -- -- 71
2020-09-06 09:00:00 14.6 10 Este 18 Nordeste 0 -- -- 79
2020-09-06 08:00:00 13.2 7 Nordeste 14 Este 0 -- -- 83
2020-09-06 07:00:00 13.7 5 Nordeste 16 Norte 0 -- -- 81
2020-09-06 06:00:00 14.3 7 Nordeste 22 Este 0 -- -- 79
2020-09-06 05:00:00 15.1 8 Nordeste 19 Nordeste 0 -- -- 76
2020-09-06 04:00:00 15.7 8 Nordeste 20 Norte 0 -- -- 73
2020-09-06 03:00:00 17 6 Nordeste 22 Nordeste 0 -- -- 68
2020-09-06 02:00:00 18.4 7 Nordeste 16 Nordeste 0 -- -- 63
2020-09-06 01:00:00 20.2 14 Este 30 Este 0 -- -- 58
2020-09-06 00:00:00 21.9 22 Este 31 Este 0 -- -- 52
2020-09-05 23:00:00 24.1 17 Este 34 Nordeste 0 -- -- 43
2020-09-05 22:00:00 25.7 17 Nordeste 31 Nordeste 0 -- -- 39
2020-09-05 21:00:00 27.9 5 Norte 13 Norte 0 -- -- 28
2020-09-05 20:00:00 30.8 3 Norte 17 Norte 0 -- -- 24
2020-09-05 19:00:00 31.4 6 Norte 21 Noroeste 0 -- -- 23
2020-09-05 18:00:00 31.6 10 Norte 25 Nordeste 0 -- -- 22
2020-09-05 17:00:00 31.5 10 Norte 25 Noroeste 0 -- -- 23
2020-09-05 16:00:00 31.6 9 Oeste 24 Noroeste 0 -- -- 23
2020-09-05 15:00:00 30.8 6 Norte 20 Noroeste 0 -- -- 25
2020-09-05 14:00:00 29.3 9 Norte 18 Norte 0 -- -- 28
2020-09-05 13:00:00 27.4 8 Norte 17 Norte 0 -- -- 31
2020-09-05 12:00:00 25.1 8 Noroeste 14 Noroeste 0 -- -- 35
2020-09-05 11:00:00 22.3 4 Norte 7 Nordeste 0 -- -- 40
2020-09-05 10:00:00 19.1 0 Calma 5 Nordeste 0 -- -- 50
2020-09-05 09:00:00 13.5 3 Sur 8 Sur 0 -- -- 61
2020-09-05 08:00:00 12.1 6 Sur 9 Sur 0 -- -- 63
2020-09-05 07:00:00 13.2 4 Sur 8 Sur 0 -- -- 58
2020-09-05 06:00:00 14.6 4 Sudeste 6 Sur 0 -- -- 57
2020-09-05 05:00:00 15.8 3 Sudoeste 7 Sudoeste 0 -- -- 53
2020-09-05 04:00:00 16 4 Sudoeste 8 Sudoeste 0 -- -- 51
2020-09-05 03:00:00 16.9 3 Sur 8 Sudoeste 0 -- -- 47
2020-09-05 02:00:00 18.6 3 Sur 10 Sudoeste 0 -- -- 42
2020-09-05 01:00:00 19.4 4 Oeste 12 Oeste 0 -- -- 40
2020-09-05 00:00:00 19.3 5 Sur 14 Sur 0 -- -- 41
2020-09-04 23:00:00 20.6 5 Sur 7 Sur 0 -- -- 36
2020-09-04 22:00:00 23 5 Sur 11 Sur 0 -- -- 31
2020-09-04 21:00:00 28.6 0 Calma 12 Oeste 0 -- -- 27
2020-09-04 20:00:00 32.2 5 Oeste 14 Oeste 0 -- -- 21
2020-09-04 19:00:00 32.9 7 Noroeste 21 Oeste 0 -- -- 21
2020-09-04 18:00:00 32.8 5 Noroeste 22 Oeste 0 -- -- 20
2020-09-04 17:00:00 32.9 7 Nordeste 20 Norte 0 -- -- 20
2020-09-04 16:00:00 32.8 10 Oeste 22 Oeste 0 -- -- 20
2020-09-04 15:00:00 31.8 10 Norte 26 Oeste 0 -- -- 21
2020-09-04 14:00:00 31 5 Norte 19 Este 0 -- -- 22
2020-09-04 13:00:00 29.7 6 Noroeste 13 Noroeste 0 -- -- 24
2020-09-04 12:00:00 28.1 5 Nordeste 10 Noroeste 0 -- -- 26
2020-09-04 11:00:00 24.7 4 Norte 6 Norte 0 -- -- 32
2020-09-04 10:00:00 18 0 Calma 3 Noroeste 0 -- -- 44
2020-09-04 09:00:00 11.9 0 Calma 6 Sur 0 -- -- 55
2020-09-04 08:00:00 9.7 4 Sur 5 Sudeste 0 -- -- 58
2020-09-04 07:00:00 10.5 2 Norte 8 Sur 0 -- -- 57
2020-09-04 06:00:00 11.1 5 Sur 10 Sur 0 -- -- 52
2020-09-04 05:00:00 11.3 6 Sur 9 Sur 0 -- -- 50
2020-09-04 04:00:00 11.8 2 Sur 9 Sur 0 -- -- 49
2020-09-04 03:00:00 12.2 7 Sur 9 Sur 0 -- -- 47
2020-09-04 02:00:00 13 4 Sur 7 Sur 0 -- -- 45
2020-09-04 01:00:00 13.9 7 Sur 9 Sur 0 -- -- 43
2020-09-04 00:00:00 15.3 4 Sur 9 Sur 0 -- -- 39
2020-09-03 23:00:00 17.5 2 Sur 7 Sur 0 -- -- 36
2020-09-03 22:00:00 21.5 3 Sur 8 Este 0 -- -- 32
2020-09-03 21:00:00 26.3 4 Este 12 Nordeste 0 -- -- 26
2020-09-03 20:00:00 29.3 5 Norte 15 Nordeste 0 -- -- 21
2020-09-03 19:00:00 30.1 8 Nordeste 20 Oeste 0 -- -- 21
2020-09-03 18:00:00 30.2 6 Noroeste 20 Nordeste 0 -- -- 22
2020-09-03 17:00:00 30.7 4 Noroeste 18 Noroeste 0 -- -- 22
2020-09-03 16:00:00 30 10 Nordeste 18 Nordeste 0 -- -- 23
2020-09-03 15:00:00 29.4 8 Nordeste 26 Noroeste 0 -- -- 24
2020-09-03 14:00:00 28.4 4 Este 17 Este 0 -- -- 26
2020-09-03 13:00:00 27 11 Este 21 Este 0 -- -- 29
2020-09-03 12:00:00 24.8 11 Este 19 Nordeste 0 -- -- 33
2020-09-03 11:00:00 21.2 11 Este 18 Este 0 -- -- 38
2020-09-03 10:00:00 17.6 9 Este 15 Nordeste 0 -- -- 44
2020-09-03 09:00:00 9.8 0 Calma 4 Sur 0 -- -- 60
2020-09-03 08:00:00 7.4 0 Calma 8 Sur 0 -- -- 64
2020-09-03 07:00:00 8 0 Calma 6 Sur 0 -- -- 62
2020-09-03 06:00:00 8.6 6 Sur 9 Sur 0 -- -- 60
2020-09-03 05:00:00 9.6 4 Sur 9 Sur 0 -- -- 55
2020-09-03 04:00:00 10 2 Sudoeste 8 Sur 0 -- -- 57
2020-09-03 03:00:00 10.2 3 Sur 5 Sudoeste 0 -- -- 53
2020-09-03 02:00:00 11.1 0 Calma 8 Sur 0 -- -- 49
2020-09-03 01:00:00 12.3 5 Sur 9 Sur 0 -- -- 48
2020-09-03 00:00:00 14 5 Sur 9 Sur 0 -- -- 43
2020-09-02 23:00:00 16.1 5 Sur 9 Sur 0 -- -- 39
2020-09-02 22:00:00 19.8 4 Noroeste 7 Noroeste 0 -- -- 34
2020-09-02 21:00:00 23.7 4 Nordeste 16 Nordeste 0 -- -- 28
2020-09-02 20:00:00 26.2 9 Norte 17 Nordeste 0 -- -- 25
2020-09-02 19:00:00 27.1 7 Norte 19 Norte 0 -- -- 24
2020-09-02 18:00:00 27.5 9 Nordeste 20 Nordeste 0 -- -- 22
2020-09-02 17:00:00 27.8 8 Sudeste 21 Este 0 -- -- 23
2020-09-02 16:00:00 26.5 8 Norte 23 Nordeste 0 -- -- 26
2020-09-02 15:00:00 26.2 7 Nordeste 27 Este 0 -- -- 28
2020-09-02 14:00:00 25.4 14 Este 27 Este 0 -- -- 31
2020-09-02 13:00:00 23 15 Este 25 Este 0 -- -- 38
2020-09-02 12:00:00 20.4 17 Este 28 Este 0 -- -- 44
2020-09-02 11:00:00 17.4 13 Este 20 Este 0 -- -- 53
2020-09-02 10:00:00 14.6 14 Este 21 Este 0 -- -- 63
2020-09-02 09:00:00 9.5 3 Este 8 Nordeste 0 -- -- 79
2020-09-02 08:00:00 6 2 Sur 5 Sur 0 -- -- 69
2020-09-02 07:00:00 7 3 Sur 5 Sur 0 -- -- 66
2020-09-02 06:00:00 7.9 0 Calma 5 Nordeste 0 -- -- 64
2020-09-02 05:00:00 9.1 0 Calma 8 Nordeste 0 -- -- 57
2020-09-02 04:00:00 11.3 3 Nordeste 8 Nordeste 0 -- -- 53
2020-09-02 03:00:00 13.8 4 Oeste 19 Noroeste 0 -- -- 46
2020-09-02 02:00:00 13.5 13 Este 22 Este 0 -- -- 48
2020-09-02 01:00:00 11.3 3 Norte 12 Nordeste 0 -- -- 46
2020-09-02 00:00:00 12.8 7 Sur 9 Sur 0 -- -- 42
2020-09-01 23:00:00 15 5 Sur 7 Sur 0 -- -- 36
2020-09-01 22:00:00 19 2 Noroeste 8 Norte 0 -- -- 31
2020-09-01 21:00:00 23.3 4 Noroeste 15 Noroeste 0 -- -- 26
2020-09-01 20:00:00 25.5 8 Norte 16 Norte 0 -- -- 22
2020-09-01 19:00:00 26.4 9 Noroeste 19 Noroeste 0 -- -- 22
2020-09-01 18:00:00 27.2 8 Sudoeste 23 Oeste 0 -- -- 20
2020-09-01 17:00:00 27.2 7 Oeste 22 Noroeste 0 -- -- 22
2020-09-01 16:00:00 26.1 5 Nordeste 18 Oeste 0 -- -- 22
2020-09-01 15:00:00 25.7 7 Norte 18 Noroeste 0 -- -- 24
2020-09-01 14:00:00 24.6 7 Noroeste 16 Oeste 0 -- -- 24
2020-09-01 13:00:00 23.3 5 Noroeste 14 Norte 0 -- -- 28
2020-09-01 12:00:00 22.6 8 Norte 14 Noroeste 0 -- -- 28
2020-09-01 11:00:00 19.5 4 Noroeste 5 Noroeste 0 -- -- 33
2020-09-01 10:00:00 13.8 0 Calma 4 Oeste 0 -- -- 45
2020-09-01 09:00:00 11.2 3 Sudoeste 6 Sur 0 -- -- 50
2020-09-01 08:00:00 10.5 4 Sur 7 Sur 0 -- -- 50
2020-09-01 07:00:00 11.5 0 Calma 4 Sudoeste 0 -- -- 54
2020-09-01 06:00:00 11.8 2 Sudeste 8 Sudeste 0 -- -- 54
2020-09-01 05:00:00 12.1 3 Sudeste 6 Oeste 0 -- -- 42
2020-09-01 04:00:00 11.6 0 Calma 5 Sudoeste 0 -- -- 44
2020-09-01 03:00:00 11.3 3 Sur 8 Sur 0 -- -- 41
2020-09-01 02:00:00 11.6 4 Sur 8 Sur 0 -- -- 38
2020-09-01 01:00:00 11.5 4 Sur 11 Sur 0 -- -- 38
2020-09-01 00:00:00 11.9 5 Sur 9 Sur 0 -- -- 36
2020-08-31 23:00:00 13.9 6 Sur 9 Sur 0 -- -- 33
2020-08-31 22:00:00 17.8 2 Sur 11 Noroeste 0 -- -- 28
2020-08-31 21:00:00 21.3 7 Noroeste 15 Noroeste 0 -- -- 24
2020-08-31 20:00:00 24 8 Noroeste 21 Oeste 0 -- -- 22
2020-08-31 19:00:00 25.2 9 Oeste 29 Oeste 0 -- -- 20
2020-08-31 18:00:00 25.6 10 Oeste 24 Oeste 0 -- -- 21
2020-08-31 17:00:00 24.5 13 Oeste 25 Oeste 0 -- -- 23
2020-08-31 16:00:00 24.2 12 Oeste 32 Oeste 0 -- -- 22
2020-08-31 15:00:00 23.9 14 Oeste 31 Oeste 0 -- -- 23
2020-08-31 14:00:00 22.5 13 Oeste 33 Oeste 0 -- -- 27
2020-08-31 13:00:00 20.9 8 Oeste 17 Oeste 0 -- -- 31
2020-08-31 12:00:00 19.5 9 Este 22 Nordeste 0 -- -- 35
2020-08-31 11:00:00 16.5 8 Este 13 Este 0 -- -- 42
2020-08-31 10:00:00 11.2 2 Nordeste 5 Este 0 -- -- 61
2020-08-31 09:00:00 6 0 Calma 4 Sur 0 -- -- 72
2020-08-31 08:00:00 4.1 0 Calma 8 Este 0 -- -- 69
2020-08-31 07:00:00 4.4 4 Sudoeste 6 Sudoeste 0 -- -- 78
2020-08-31 06:00:00 4 4 Sudoeste 6 Sudoeste 0 -- -- 71
2020-08-31 05:00:00 5.3 2 Sur 5 Oeste 0 -- -- 66
2020-08-31 04:00:00 7.1 0 Calma 15 Este 0 -- -- 59
2020-08-31 03:00:00 10 13 Este 24 Este 0 -- -- 58
2020-08-31 02:00:00 6 3 Sur 5 Sudoeste 0 -- -- 61
2020-08-31 01:00:00 7.5 2 Sur 8 Sur 0 -- -- 55
2020-08-31 00:00:00 8.8 4 Sur 7 Sur 0 -- -- 52
2020-08-30 23:00:00 11.4 3 Sur 5 Sur 0 -- -- 47
2020-08-30 22:00:00 14.8 3 Este 15 Este 0 -- -- 40
2020-08-30 21:00:00 17.4 5 Nordeste 20 Este 0 -- -- 35
2020-08-30 20:00:00 19.1 8 Norte 24 Norte 0 -- -- 33
2020-08-30 19:00:00 20.1 11 Nordeste 23 Nordeste 0 -- -- 32
2020-08-30 18:00:00 20.1 12 Nordeste 28 Nordeste 0 -- -- 32
2020-08-30 17:00:00 20 13 Nordeste 31 Este 0 -- -- 34
2020-08-30 16:00:00 19.9 15 Este 28 Nordeste 0 -- -- 35
2020-08-30 15:00:00 19.6 10 Este 25 Nordeste 0 -- -- 38
2020-08-30 14:00:00 18.2 10 Nordeste 28 Nordeste 0 -- -- 41
2020-08-30 13:00:00 17.3 16 Este 28 Este 0 -- -- 44
2020-08-30 12:00:00 15.9 13 Nordeste 28 Este 0 -- -- 48
2020-08-30 11:00:00 14.7 15 Este 32 Nordeste 0 -- -- 53
2020-08-30 10:00:00 12.3 15 Este 24 Este 0 -- -- 63
2020-08-30 09:00:00 9 8 Este 13 Este 0 -- -- 78
2020-08-30 08:00:00 6 5 Este 10 Sudeste 0 -- -- 85
2020-08-30 07:00:00 6.9 4 Este 12 Este 0 -- -- 79
2020-08-30 06:00:00 7.8 9 Este 14 Nordeste 0 -- -- 80
2020-08-30 05:00:00 8.4 11 Este 17 Este 0 -- -- 79
2020-08-30 04:00:00 9.5 13 Este 19 Este 0 -- -- 75
2020-08-30 03:00:00 10.8 14 Este 31 Nordeste 0 -- -- 69
2020-08-30 02:00:00 12 9 Nordeste 21 Nordeste 0 -- -- 61
2020-08-30 01:00:00 13.5 12 Nordeste 32 Nordeste 0 -- -- 55
2020-08-30 00:00:00 14.8 15 Nordeste 29 Norte 0 -- -- 52
2020-08-29 23:00:00 15.8 14 Norte 32 Norte 0 -- -- 50
2020-08-29 22:00:00 16.7 11 Norte 27 Norte 0 -- -- 48
2020-08-29 21:00:00 17.4 8 Norte 24 Norte 0 -- -- 44
2020-08-29 20:00:00 18.7 11 Norte 26 Nordeste 0 -- -- 40
2020-08-29 19:00:00 19.7 11 Norte 28 Norte 0 -- -- 38
2020-08-29 18:00:00 21.1 14 Noroeste 32 Noroeste 0 -- -- 34
2020-08-29 17:00:00 19.9 16 Norte 36 Norte 0 -- -- 36
2020-08-29 16:00:00 20.6 12 Norte 31 Norte 0 -- -- 35
2020-08-29 15:00:00 19.9 15 Noroeste 32 Norte 0 -- -- 38
2020-08-29 14:00:00 18.6 13 Norte 25 Noroeste 0 -- -- 41
2020-08-29 13:00:00 17.7 11 Norte 28 Noroeste 0 -- -- 43
2020-08-29 12:00:00 16.3 10 Norte 23 Noroeste 0 -- -- 49
2020-08-29 11:00:00 14.9 12 Norte 22 Noroeste 0 -- -- 54
2020-08-29 10:00:00 12.6 9 Noroeste 13 Noroeste 0 -- -- 61
2020-08-29 09:00:00 8.5 0 Calma 6 Sur 0 -- -- 75
2020-08-29 08:00:00 5.8 5 Sur 12 Sur 0 -- -- 79
2020-08-29 07:00:00 6 4 Sur 7 Sur 0 -- -- 74
2020-08-29 06:00:00 7.6 3 Sudoeste 5 Sur 0 -- -- 70
2020-08-29 05:00:00 9.4 3 Sur 15 Norte 0 -- -- 64
2020-08-29 04:00:00 11.1 9 Noroeste 18 Noroeste 0 -- -- 63
2020-08-29 03:00:00 12.1 9 Noroeste 23 Noroeste 0 -- -- 59
2020-08-29 02:00:00 13 7 Noroeste 19 Noroeste 0 -- -- 58
2020-08-29 01:00:00 14.4 9 Noroeste 19 Noroeste 0 -- -- 53
2020-08-29 00:00:00 15.7 12 Noroeste 22 Noroeste 0 -- -- 49
2020-08-28 23:00:00 16.7 8 Norte 22 Noroeste 0 -- -- 46
2020-08-28 22:00:00 18.6 14 Noroeste 26 Oeste 0 -- -- 43
2020-08-28 21:00:00 19.8 15 Noroeste 34 Oeste 0 -- -- 36
2020-08-28 20:00:00 22.1 20 Noroeste 36 Noroeste 0 -- -- 29
2020-08-28 19:00:00 23.5 22 Noroeste 40 Noroeste 0 -- -- 23
2020-08-28 18:00:00 24.9 21 Oeste 39 Oeste 0 -- -- 22
2020-08-28 17:00:00 25.6 22 Oeste 39 Noroeste 0 -- -- 17
2020-08-28 16:00:00 25.9 16 Noroeste 36 Oeste 0 -- -- 23
2020-08-28 15:00:00 25.2 17 Noroeste 32 Oeste 0 -- -- 29
2020-08-28 14:00:00 23.9 17 Noroeste 31 Oeste 0 -- -- 32
2020-08-28 13:00:00 22.9 14 Noroeste 28 Oeste 0 -- -- 39
2020-08-28 12:00:00 21.9 13 Oeste 26 Oeste 0 -- -- 47
2020-08-28 11:00:00 19.9 14 Noroeste 28 Noroeste 0 -- -- 57
2020-08-28 10:00:00 18.2 17 Oeste 25 Noroeste 0 -- -- 73
2020-08-28 09:00:00 16 8 Oeste 13 Oeste 0 -- -- 90
2020-08-28 08:00:00 15.3 6 Sudoeste 11 Sudoeste 0 -- -- 91
2020-08-28 07:00:00 15.6 5 Sudoeste 11 Sudoeste 0 -- -- 87
2020-08-28 06:00:00 16.1 11 Oeste 21 Oeste 0 -- -- 84
2020-08-28 05:00:00 17 7 Sudoeste 14 Sudoeste 0 -- -- 81
2020-08-28 04:00:00 18.3 8 Oeste 17 Oeste 0 -- -- 75
2020-08-28 03:00:00 19.6 7 Oeste 20 Oeste 0 -- -- 68
2020-08-28 02:00:00 21.2 4 Oeste 17 Oeste 0 -- -- 60
2020-08-28 01:00:00 23 8 Noroeste 22 Noroeste 0 -- -- 54
2020-08-28 00:00:00 24 12 Noroeste 21 Oeste 0 -- -- 55
2020-08-27 23:00:00 24.9 11 Noroeste 23 Oeste 0 -- -- 47
2020-08-27 22:00:00 26.2 4 Noroeste 21 Noroeste 0 -- -- 35
2020-08-27 21:00:00 28.3 13 Noroeste 29 Noroeste 0 -- -- 33
2020-08-27 20:00:00 30.7 15 Noroeste 32 Noroeste 0 -- -- 26
2020-08-27 19:00:00 32.1 15 Noroeste 28 Sudoeste 0 -- -- 27
2020-08-27 18:00:00 33 13 Oeste 26 Oeste 0 -- -- 28
2020-08-27 17:00:00 33.3 5 Oeste 24 Sudoeste 0 -- -- 29
2020-08-27 16:00:00 31.9 5 Noroeste 19 Oeste 0 -- -- 33
2020-08-27 15:00:00 31 7 Noroeste 18 Oeste 0 -- -- 34
2020-08-27 14:00:00 30.6 5 Oeste 16 Este 0 -- -- 39
2020-08-27 13:00:00 29.1 6 Nordeste 13 Este 0 -- -- 45
2020-08-27 12:00:00 26.7 5 Norte 13 Nordeste 0 -- -- 50
2020-08-27 11:00:00 24.9 4 Noroeste 9 Noroeste 0 -- -- 56
2020-08-27 10:00:00 21.8 3 Noroeste 6 Noroeste 0 -- -- 69
2020-08-27 09:00:00 16.3 2 Sudeste 7 Sudeste 0 -- -- 77
2020-08-27 08:00:00 13.3 3 Sur 5 Sur 0 -- -- 73
2020-08-27 07:00:00 13.8 2 Sur 4 Sur 0 -- -- 70
2020-08-27 06:00:00 14.4 3 Sur 5 Sur 0 -- -- 65
2020-08-27 05:00:00 15.2 4 Sudeste 6 Sur 0 -- -- 61
2020-08-27 04:00:00 16.2 3 Sur 6 Sur 0 -- -- 56
2020-08-27 03:00:00 16.9 4 Sudeste 6 Sur 0 -- -- 52
2020-08-27 02:00:00 17.6 5 Sur 9 Sur 0 -- -- 49
2020-08-27 01:00:00 18.1 7 Sur 11 Sudoeste 0 -- -- 46
2020-08-27 00:00:00 19.3 8 Sur 10 Sur 0 -- -- 43
2020-08-26 23:00:00 21.4 7 Sur 10 Sur 0 -- -- 39
2020-08-26 22:00:00 26.1 4 Sur 10 Noroeste 0 -- -- 32
2020-08-26 21:00:00 29.8 8 Noroeste 22 Norte 0 -- -- 27
2020-08-26 20:00:00 32.6 8 Noroeste 24 Noroeste 0 -- -- 24
2020-08-26 19:00:00 33.3 15 Noroeste 30 Oeste 0 -- -- 23
2020-08-26 18:00:00 33.9 13 Oeste 27 Oeste 0 -- -- 24
2020-08-26 17:00:00 33.6 15 Noroeste 28 Noroeste 0 -- -- 25
2020-08-26 16:00:00 32.7 11 Oeste 22 Oeste 0 -- -- 26
2020-08-26 15:00:00 31.3 8 Norte 18 Norte 0 -- -- 30
2020-08-26 14:00:00 30.9 8 Norte 21 Noroeste 0 -- -- 31
2020-08-26 13:00:00 28.9 7 Norte 15 Nordeste 0 -- -- 36
2020-08-26 12:00:00 27.2 4 Nordeste 10 Nordeste 0 -- -- 39
2020-08-26 11:00:00 23.9 3 Nordeste 10 Nordeste 0 -- -- 45
2020-08-26 10:00:00 19.4 2 Sur 5 Sudeste 0 -- -- 51
2020-08-26 09:00:00 13.7 2 Sur 4 Sudoeste 0 -- -- 61
2020-08-26 08:00:00 11 6 Sur 8 Sur 0 -- -- 66
2020-08-26 07:00:00 11.4 0 Calma 5 Sur 0 -- -- 62
2020-08-26 06:00:00 12.3 4 Sur 8 Sur 0 -- -- 58
2020-08-26 05:00:00 12.5 5 Sur 7 Sur 0 -- -- 55
2020-08-26 04:00:00 13.3 3 Sur 7 Sur 0 -- -- 50
2020-08-26 03:00:00 14.1 3 Sudeste 6 Sudeste 0 -- -- 47
2020-08-26 02:00:00 15.4 4 Sur 11 Sur 0 -- -- 41
2020-08-26 01:00:00 16.7 4 Sur 10 Sur 0 -- -- 37
2020-08-26 00:00:00 17.8 8 Sur 11 Sur 0 -- -- 35